createdAt,value
2023-12-13T00:02:31.534Z,94337.69
2023-12-13T00:07:33.367Z,94332.63
2023-12-13T00:12:36.674Z,94327.94
2023-12-13T00:17:39.342Z,94326.34
2023-12-13T00:22:42.221Z,94322.00
2023-12-13T00:27:44.425Z,94321.97
2023-12-13T00:32:46.232Z,94328.56
2023-12-13T00:37:48.181Z,94318.38
2023-12-13T00:42:50.549Z,94326.50
2023-12-13T00:47:53.044Z,94316.72
2023-12-13T00:52:55.599Z,94322.84
2023-12-13T00:57:58.506Z,94338.38
2023-12-13T01:03:02.176Z,94346.09
2023-12-13T01:08:04.438Z,94341.13
2023-12-13T01:13:06.414Z,94334.94
2023-12-13T01:18:08.740Z,94325.19
2023-12-13T01:23:10.639Z,94322.41
2023-12-13T01:28:12.307Z,94330.91
2023-12-13T01:33:14.646Z,94335.88
2023-12-13T01:38:17.148Z,94328.50
2023-12-13T01:43:25.680Z,94332.03
2023-12-13T01:48:28.553Z,94334.81
2023-12-13T01:53:31.647Z,94320.50
2023-12-13T01:58:38.213Z,94320.50
2023-12-13T02:03:41.284Z,94314.63
2023-12-13T02:08:43.325Z,94311.06
2023-12-13T02:13:45.656Z,94283.41
2023-12-13T02:18:48.066Z,94289.56
2023-12-13T02:23:52.560Z,94293.47
2023-12-13T02:28:56.022Z,94279.44
2023-12-13T02:33:59.050Z,94275.88
2023-12-13T02:39:04.483Z,94284.88
2023-12-13T02:44:06.758Z,94291.94
2023-12-13T02:49:08.586Z,94293.97
2023-12-13T02:54:10.238Z,94287.09
2023-12-13T02:59:12.582Z,94287.16
2023-12-13T03:04:14.449Z,94290.63
2023-12-13T03:09:16.232Z,94280.88
2023-12-13T03:14:18.751Z,94272.38
2023-12-13T03:19:21.180Z,94274.28
2023-12-13T03:24:23.304Z,94277.81
2023-12-13T03:29:26.099Z,94275.56
2023-12-13T03:34:28.222Z,94293.91
2023-12-13T03:39:29.889Z,94288.53
2023-12-13T03:44:32.113Z,94293.19
2023-12-13T03:49:34.293Z,94289.69
2023-12-13T03:54:36.571Z,94291.66
2023-12-13T03:59:39.181Z,94294.78
2023-12-13T04:04:41.047Z,94290.94
2023-12-13T04:09:42.859Z,94291.00
2023-12-13T04:14:44.536Z,94291.47
2023-12-13T04:19:46.490Z,94290.84
2023-12-13T04:24:48.226Z,94294.38
2023-12-13T04:29:50.052Z,94292.44
2023-12-13T04:34:51.950Z,94294.78
2023-12-13T04:39:53.631Z,94289.75
2023-12-13T04:44:56.309Z,94290.59
2023-12-13T04:49:58.513Z,94301.94
2023-12-13T04:55:00.879Z,94300.06
2023-12-13T05:00:02.487Z,94296.13
2023-12-13T05:05:05.304Z,94297.25
2023-12-13T05:10:08.395Z,94293.72
2023-12-13T05:15:10.574Z,94296.47
2023-12-13T05:20:12.596Z,94290.94
2023-12-13T05:25:14.331Z,94293.97
2023-12-13T05:30:19.347Z,94293.16
2023-12-13T05:35:21.109Z,94308.22
2023-12-13T05:40:23.463Z,94300.00
2023-12-13T05:45:26.148Z,94296.03
2023-12-13T05:50:28.898Z,94287.81
2023-12-13T05:55:30.854Z,94286.59
2023-12-13T06:00:33.594Z,94284.66
2023-12-13T06:05:35.397Z,94284.31
2023-12-13T06:10:37.203Z,94279.69
2023-12-13T06:15:39.795Z,94284.34
2023-12-13T06:20:41.762Z,94283.59
2023-12-13T06:25:43.444Z,94277.38
2023-12-13T06:30:45.043Z,94272.78
2023-12-13T06:35:46.638Z,94281.78
2023-12-13T06:40:48.269Z,94275.53
2023-12-13T06:45:49.965Z,94268.56
2023-12-13T06:50:51.607Z,94271.38
2023-12-13T06:55:53.450Z,94276.03
2023-12-13T07:00:55.338Z,94281.13
2023-12-13T07:05:57.218Z,94286.97
2023-12-13T07:10:59.697Z,94278.81
2023-12-13T07:16:01.325Z,94279.19
2023-12-13T07:21:02.974Z,94260.88
2023-12-13T07:26:05.542Z,94259.69
2023-12-13T07:36:12.322Z,94264.72
2023-12-13T07:41:14.811Z,94262.00
2023-12-13T07:46:17.087Z,94266.59
2023-12-13T07:51:19.006Z,94258.88
2023-12-13T07:56:24.880Z,94255.34
2023-12-13T08:01:29.899Z,94258.09
2023-12-13T08:06:31.510Z,94246.38
2023-12-13T08:11:33.071Z,94250.63
2023-12-13T08:16:34.674Z,94257.59
2023-12-13T08:21:42.060Z,94245.53
2023-12-13T08:26:43.716Z,94247.06
2023-12-13T08:31:46.252Z,94243.09
2023-12-13T08:36:48.242Z,94232.94
2023-12-13T08:41:49.845Z,94246.88
2023-12-13T08:46:51.506Z,94248.81
2023-12-13T08:51:53.172Z,94257.25
2023-12-13T08:56:54.706Z,94265.44
2023-12-13T09:01:56.304Z,94260.69
2023-12-13T09:06:58.031Z,94252.09
2023-12-13T09:12:00.159Z,94252.00
2023-12-13T09:17:09.514Z,94250.75
2023-12-13T09:22:11.638Z,94251.06
2023-12-13T09:27:13.440Z,94246.66
2023-12-13T09:32:15.679Z,94243.44
2023-12-13T09:37:17.811Z,94237.91
2023-12-13T09:42:19.743Z,94228.81
2023-12-13T09:47:24.906Z,94227.56
2023-12-13T09:52:28.663Z,94212.25
2023-12-13T09:57:30.516Z,94211.34
2023-12-13T10:02:32.670Z,94206.50
2023-12-13T10:07:46.190Z,94213.75
2023-12-13T10:12:52.509Z,94213.31
2023-12-13T10:17:55.601Z,94203.97
2023-12-13T10:22:58.364Z,94209.19
2023-12-13T10:28:00.661Z,94198.44
2023-12-13T10:33:02.754Z,94205.13
2023-12-13T10:38:06.982Z,94208.34
2023-12-13T10:43:12.689Z,94202.03
2023-12-13T10:48:17.485Z,94202.28
2023-12-13T10:53:21.516Z,94199.38
2023-12-13T10:58:27.578Z,94194.25
2023-12-13T11:03:50.843Z,94199.31
2023-12-13T11:08:56.061Z,94188.03
2023-12-13T11:14:00.603Z,94181.03
2023-12-13T11:19:04.717Z,94185.97
2023-12-13T11:24:11.790Z,94185.97
2023-12-13T11:29:23.398Z,94176.16
2023-12-13T11:34:49.500Z,94188.47
2023-12-13T11:39:52.711Z,94176.88
2023-12-13T11:44:57.554Z,94172.25
2023-12-13T11:50:01.717Z,94176.53
2023-12-13T11:55:04.441Z,94166.03
2023-12-13T12:00:07.957Z,94167.22
2023-12-13T12:05:15.119Z,94167.31
2023-12-13T12:10:20.915Z,94160.75
2023-12-13T12:15:23.441Z,94177.97
2023-12-13T12:20:25.915Z,94178.16
2023-12-13T12:25:31.131Z,94180.56
2023-12-13T12:30:33.276Z,94175.09
2023-12-13T12:35:35.287Z,94173.19
2023-12-13T12:40:37.235Z,94173.97
2023-12-13T12:45:39.373Z,94165.88
2023-12-13T12:50:42.449Z,94150.25
2023-12-13T12:55:45.171Z,94156.81
2023-12-13T13:00:47.593Z,94161.44
2023-12-13T13:05:49.505Z,94158.72
2023-12-13T13:10:51.583Z,94163.31
2023-12-13T13:15:53.260Z,94153.59
2023-12-13T13:20:56.388Z,94162.47
2023-12-13T13:25:58.643Z,94160.44
2023-12-13T13:31:00.610Z,94153.75
2023-12-13T13:36:04.302Z,94154.09
2023-12-13T13:41:08.737Z,94144.28
2023-12-13T13:46:18.120Z,94143.09
2023-12-13T13:51:19.967Z,94145.81
2023-12-13T13:56:27.172Z,94150.94
2023-12-13T14:01:35.951Z,94159.56
2023-12-13T14:06:38.503Z,94148.31
2023-12-13T14:11:40.099Z,94159.63
2023-12-13T14:16:42.732Z,94160.84
2023-12-13T14:21:45.292Z,94160.06
2023-12-13T14:26:47.637Z,94157.34
2023-12-13T14:31:49.975Z,94164.78
2023-12-13T14:36:51.816Z,94170.22
2023-12-13T14:41:54.434Z,94165.53
2023-12-13T14:46:57.195Z,94176.88
2023-12-13T14:52:00.234Z,94180.38
2023-12-13T14:57:02.716Z,94183.88
2023-12-13T15:02:05.008Z,94168.69
2023-12-13T15:07:08.631Z,94171.00
2023-12-13T15:12:11.611Z,94175.75
2023-12-13T15:17:13.386Z,94185.91
2023-12-13T15:22:15.506Z,94178.16
2023-12-13T15:27:18.102Z,94175.09
2023-12-13T15:32:20.357Z,94196.59
2023-12-13T15:37:22.105Z,94206.28
2023-12-13T15:42:24.999Z,94195.03
2023-12-13T15:47:26.640Z,94191.19
2023-12-13T15:52:28.384Z,94186.59
2023-12-13T15:57:31.880Z,94203.06
2023-12-13T16:02:34.469Z,94204.22
2023-12-13T16:07:37.255Z,94214.38
2023-12-13T16:12:40.155Z,94216.34
2023-12-13T16:17:43.414Z,94212.06
2023-12-13T16:22:45.533Z,94219.94
2023-12-13T16:27:48.553Z,94216.41
2023-12-13T16:32:52.960Z,94227.31
2023-12-13T16:37:54.755Z,94220.00
2023-12-13T16:43:00.233Z,94224.34
2023-12-13T16:48:02.483Z,94224.00
2023-12-13T16:53:05.826Z,94226.81
2023-12-13T16:58:08.869Z,94224.16
2023-12-13T17:03:11.070Z,94220.66
2023-12-13T17:08:13.813Z,94220.34
2023-12-13T17:13:16.783Z,94213.31
2023-12-13T17:18:19.466Z,94225.44
2023-12-13T17:23:23.154Z,94229.34
2023-12-13T17:28:25.324Z,94235.22
2023-12-13T17:33:27.785Z,94245.38
2023-12-13T17:38:30.669Z,94253.56
2023-12-13T17:43:33.844Z,94245.44
2023-12-13T17:48:36.720Z,94252.09
2023-12-13T17:53:41.397Z,94257.19
2023-12-13T17:58:45.019Z,94255.31
2023-12-13T18:03:47.305Z,94268.94
2023-12-13T18:08:50.111Z,94279.50
2023-12-13T18:13:53.163Z,94279.16
2023-12-13T18:18:55.345Z,94275.03
2023-12-13T18:23:57.609Z,94286.78
2023-12-13T18:29:02.746Z,94293.41
2023-12-13T18:34:06.112Z,94291.88
2023-12-13T18:39:22.985Z,94303.28
2023-12-13T18:44:24.889Z,94309.13
2023-12-13T18:49:30.952Z,94322.41
2023-12-13T18:54:33.018Z,94322.84
2023-12-13T18:59:35.292Z,94311.16
2023-12-13T19:04:37.128Z,94326.81
2023-12-13T19:09:39.220Z,94328.00
2023-12-13T19:14:40.840Z,94317.09
2023-12-13T19:19:42.620Z,94329.94
2023-12-13T19:24:45.060Z,94335.41
2023-12-13T19:29:47.139Z,94337.78
2023-12-13T19:34:49.940Z,94349.44
2023-12-13T19:39:52.801Z,94351.81
2023-12-13T19:44:54.829Z,94341.31
2023-12-13T19:49:56.626Z,94337.06
2023-12-13T19:54:58.792Z,94348.38
2023-12-13T20:00:00.837Z,94349.97
2023-12-13T20:05:03.111Z,94352.38
2023-12-13T20:10:05.098Z,94356.66
2023-12-13T20:15:10.110Z,94355.56
2023-12-13T20:20:12.786Z,94367.72
2023-12-13T20:25:15.531Z,94372.44
2023-12-13T20:30:18.801Z,94385.69
2023-12-13T20:35:20.565Z,94385.00
2023-12-13T20:40:22.402Z,94396.28
2023-12-13T20:45:24.141Z,94394.38
2023-12-13T20:50:26.024Z,94390.91
2023-12-13T20:55:27.868Z,94390.91
2023-12-13T21:00:30.238Z,94405.69
2023-12-13T21:05:32.093Z,94405.31
2023-12-13T21:10:37.620Z,94397.94
2023-12-13T21:15:39.561Z,94414.22
2023-12-13T21:20:41.295Z,94414.97
2023-12-13T21:25:43.060Z,94419.25
2023-12-13T21:30:45.205Z,94428.97
2023-12-13T21:35:50.018Z,94431.31
2023-12-13T21:40:52.371Z,94426.31
2023-12-13T21:45:54.205Z,94446.13
2023-12-13T21:50:56.444Z,94445.38
2023-12-13T21:55:58.606Z,94436.53
2023-12-13T22:01:00.401Z,94444.81
2023-12-13T22:06:04.133Z,94443.78
2023-12-13T22:11:08.982Z,94453.56
2023-12-13T22:16:19.092Z,94462.25
2023-12-13T22:21:20.716Z,94463.91
2023-12-13T22:26:22.733Z,94467.47
2023-12-13T22:31:24.347Z,94470.25
2023-12-13T22:36:27.046Z,94475.31
2023-12-13T22:41:29.522Z,94476.84
2023-12-13T22:46:31.246Z,94478.88
2023-12-13T22:51:33.002Z,94483.94
2023-12-13T22:56:34.906Z,94492.09
2023-12-13T23:01:37.637Z,94496.84
2023-12-13T23:06:40.306Z,94499.97
2023-12-13T23:11:44.192Z,94500.41
2023-12-13T23:16:45.975Z,94510.97
2023-12-13T23:21:47.970Z,94505.22
2023-12-13T23:26:50.718Z,94520.34
2023-12-13T23:31:52.735Z,94528.91
2023-12-13T23:36:54.642Z,94532.81
2023-12-13T23:41:56.565Z,94545.25
2023-12-13T23:47:00.046Z,94546.47
2023-12-13T23:52:02.782Z,94555.50
2023-12-13T23:57:04.901Z,94564.03
